Time;durP1;ratioP1;P1;durP2;ratioP2;P2;SDS_P1;SDS_P2;PMS_P1;PMS_P2;Temp;Humidity;BMP_temperature;BMP_pressure;BME280_temperature;BME280_humidity;BME280_pressure;Samples;Min_cycle;Max_cycle;Signal;HPM_P1;HPM_P2
2023/02/05 00:00:17;;;;;;;;;2.25;2.00;;;;;10.01;62.46;103255.66;6272325;22;45627;-75
2023/02/05 00:02:43;;;;;;;;;2.50;2.00;;;;;10.04;62.26;103259.97;6271710;22;45475;-74
2023/02/05 00:05:09;;;;;;;;;2.75;2.25;;;;;10.06;61.93;103266.00;6243911;22;48194;-74
2023/02/05 00:07:34;;;;;;;;;2.00;2.00;;;;;9.99;61.87;103254.81;6272161;22;45977;-75
2023/02/05 00:13:22;;;;;;;;;3.00;3.00;;;;;9.97;61.50;103250.53;6272195;22;45609;-73
2023/02/05 00:15:47;;;;;;;;;2.00;2.00;;;;;9.98;61.29;103254.88;6271148;22;46407;-75
2023/02/05 00:18:13;;;;;;;;;2.50;2.00;;;;;9.97;61.42;103250.53;6271999;22;45971;-74
2023/02/05 00:20:38;;;;;;;;;2.25;2.00;;;;;9.98;60.96;103250.50;6272218;22;45588;-75
2023/02/05 00:23:04;;;;;;;;;2.00;1.75;;;;;9.98;61.12;103253.13;6271949;22;45586;-74
2023/02/05 00:29:31;;;;;;;;;2.00;1.75;;;;;10.00;61.03;103263.53;6269680;22;45998;-75
2023/02/05 00:31:59;;;;;;;;;3.00;1.75;;;;;9.97;60.60;103242.69;6273395;22;45554;-77
2023/02/05 00:34:24;;;;;;;;;2.00;1.75;;;;;10.01;60.50;103247.78;6273098;22;45839;-77
2023/02/05 00:36:50;;;;;;;;;1.00;1.00;;;;;10.02;60.24;103246.03;6272218;22;45672;-74
2023/02/05 00:39:15;;;;;;;;;1.00;1.00;;;;;10.00;59.90;103239.97;6272303;22;45464;-76
2023/02/05 00:41:44;;;;;;;;;1.00;1.00;;;;;9.96;59.94;103241.81;6271896;22;45621;-73
2023/02/05 00:44:12;;;;;;;;;1.00;0.75;;;;;9.97;60.04;103237.44;6271392;22;45449;-75
2023/02/05 00:46:37;;;;;;;;;1.00;1.00;;;;;9.92;59.95;103234.09;6271226;22;47433;-72
2023/02/05 00:49:06;;;;;;;;;1.00;0.75;;;;;9.96;59.94;103251.44;6243680;22;46862;-75
2023/02/05 00:51:34;;;;;;;;;1.00;0.50;;;;;9.39;59.62;103154.34;6271396;22;45470;-73
2023/02/05 00:53:59;;;;;;;;;2.00;1.00;;;;;9.50;60.03;103175.84;6271278;22;45682;-74
2023/02/05 00:56:27;;;;;;;;;0.75;0.75;;;;;9.43;59.56;103153.34;6270881;22;45492;-74
2023/02/05 00:58:56;;;;;;;;;2.00;1.00;;;;;9.34;59.57;103143.94;6271100;22;46013;-75
2023/02/05 01:01:24;;;;;;;;;1.00;1.00;;;;;9.38;59.74;103142.13;6271228;22;45725;-75
2023/02/05 01:03:50;;;;;;;;;1.00;1.00;;;;;9.97;59.50;103234.81;6272104;22;45740;-74
2023/02/05 01:06:19;;;;;;;;;2.00;1.00;;;;;9.48;59.33;103135.78;6271684;22;46022;-75
2023/02/05 01:08:45;;;;;;;;;1.00;1.00;;;;;9.99;59.13;103233.00;6244076;22;48005;-74
2023/02/05 01:11:14;;;;;;;;;1.00;0.00;;;;;9.54;58.99;103141.72;6243409;22;45404;-74
2023/02/05 01:13:48;;;;;;;;;0.50;0.00;;;;;9.99;59.17;103206.81;6272058;22;45434;-77
2023/02/05 01:16:19;;;;;;;;;1.00;0.00;;;;;9.99;59.16;103201.56;6271168;22;45621;-74
2023/02/05 01:18:45;;;;;;;;;1.00;0.25;;;;;9.36;58.83;103091.59;6243512;22;46987;-75
2023/02/05 01:21:13;;;;;;;;;0.50;0.50;;;;;10.02;58.88;103217.22;6271613;22;45505;-75
2023/02/05 01:23:39;;;;;;;;;0.00;0.00;;;;;10.02;58.70;103201.50;6245717;22;45749;-74
2023/02/05 01:29:26;;;;;;;;;0.00;0.00;;;;;9.95;58.48;103195.56;6267878;22;45855;-75
2023/02/05 01:31:51;;;;;;;;;1.00;1.00;;;;;9.95;58.45;103198.19;6271724;22;45595;-74
2023/02/05 01:34:17;;;;;;;;;0.00;0.00;;;;;10.03;58.14;103211.09;6271365;22;45407;-75
2023/02/05 01:36:52;;;;;;;;;0.00;0.00;;;;;10.03;58.29;103209.34;6270917;22;46337;-74
2023/02/05 01:39:20;;;;;;;;;0.25;0.00;;;;;9.95;58.21;103192.97;6245816;22;47222;-77
2023/02/05 01:41:45;;;;;;;;;1.00;1.00;;;;;10.01;58.11;103197.16;6271678;22;45535;-74
2023/02/05 01:44:23;;;;;;;;;0.50;0.00;;;;;10.08;57.69;103207.44;6270653;22;45552;-73
2023/02/05 01:46:52;;;;;;;;;1.25;1.00;;;;;9.73;58.18;103139.44;6270826;22;47599;-76
2023/02/05 01:49:29;;;;;;;;;1.00;1.00;;;;;10.09;58.04;103208.31;6270709;22;45887;-75
2023/02/05 01:52:00;;;;;;;;;0.25;0.00;;;;;9.92;57.82;103174.72;6271659;22;45676;-75
2023/02/05 01:54:32;;;;;;;;;1.00;1.00;;;;;9.72;57.90;103122.03;6245423;22;45678;-75
2023/02/05 01:57:18;;;;;;;;;1.00;1.00;;;;;9.80;57.63;103148.88;6243039;22;47489;-75
2023/02/05 01:59:48;;;;;;;;;0.25;0.25;;;;;10.19;57.84;103186.22;6271163;22;45987;-76
2023/02/05 02:02:14;;;;;;;;;0.50;0.50;;;;;10.23;57.61;103193.09;6243845;22;45628;-74
2023/02/05 02:04:43;;;;;;;;;1.25;0.25;;;;;10.24;57.33;103183.47;6244367;22;45834;-75
2023/02/05 02:07:13;;;;;;;;;0.50;0.00;;;;;10.02;57.25;103143.91;6272517;22;45729;-75
2023/02/05 02:09:41;;;;;;;;;1.00;0.75;;;;;10.22;56.92;103178.28;6243047;22;46476;-74
2023/02/05 02:12:12;;;;;;;;;1.00;0.75;;;;;10.22;57.09;103164.31;6270783;22;45530;-74
2023/02/05 02:14:41;;;;;;;;;2.25;0.00;;;;;10.06;56.88;103138.53;6265978;22;45428;-73
2023/02/05 02:17:08;;;;;;;;;1.00;1.00;;;;;10.13;57.17;103151.44;6271486;22;46424;-74
2023/02/05 02:20:02;;;;;;;;;0.25;0.25;;;;;10.16;57.31;103153.97;6271260;22;46129;-74
2023/02/05 02:23:12;;;;;;;;;0.25;0.00;;;;;10.14;57.17;103151.41;6243505;22;45913;-74
2023/02/05 02:26:14;;;;;;;;;1.00;0.00;;;;;10.13;57.31;103151.44;6243565;22;46005;-75
2023/02/05 02:28:45;;;;;;;;;1.00;1.00;;;;;10.12;56.96;103163.69;6271215;22;46466;-74
2023/02/05 02:31:18;;;;;;;;;1.00;0.00;;;;;10.11;57.01;103151.47;6271377;22;46075;-74
2023/02/05 02:33:55;;;;;;;;;0.00;0.00;;;;;10.09;57.30;103164.63;6271255;22;45433;-75
2023/02/05 02:36:35;;;;;;;;;0.50;0.00;;;;;10.00;57.18;103145.69;6271322;22;45570;-75
2023/02/05 02:39:21;;;;;;;;;1.00;0.00;;;;;10.03;57.31;103159.56;6270167;22;47448;-74
2023/02/05 02:42:14;;;;;;;;;1.50;1.50;;;;;10.02;57.34;103189.28;6270834;22;46189;-74
2023/02/05 02:45:03;;;;;;;;;2.25;1.75;;;;;9.98;57.23;103192.91;6270728;22;45932;-74
2023/02/05 02:47:33;;;;;;;;;1.50;1.00;;;;;9.97;57.57;103185.94;6271094;22;45425;-75
2023/02/05 02:50:06;;;;;;;;;2.25;1.00;;;;;9.96;57.53;103189.44;6271112;22;47702;-74
2023/02/05 02:52:36;;;;;;;;;2.00;2.00;;;;;9.97;57.51;103206.03;6272212;22;48020;-74
2023/02/05 02:55:08;;;;;;;;;2.00;1.00;;;;;9.92;57.83;103218.38;6270561;22;45733;-74
2023/02/05 02:57:36;;;;;;;;;2.00;2.00;;;;;9.82;57.88;103206.44;6270854;22;45559;-74
2023/02/05 03:00:10;;;;;;;;;2.00;1.75;;;;;9.80;58.17;103218.69;6271824;22;46413;-74
2023/02/05 03:02:37;;;;;;;;;1.00;1.00;;;;;9.74;58.26;103217.09;6271542;22;46227;-74
2023/02/05 03:05:08;;;;;;;;;1.00;1.00;;;;;9.77;58.27;103210.94;6272481;22;45524;-73
2023/02/05 03:07:38;;;;;;;;;1.50;1.50;;;;;9.69;58.34;103201.50;6244742;22;45913;-73
2023/02/05 03:10:11;;;;;;;;;2.00;1.25;;;;;9.72;58.50;103207.56;6272557;22;45435;-74
2023/02/05 03:12:37;;;;;;;;;3.00;2.00;;;;;9.64;58.97;103192.91;6272384;22;46327;-75
2023/02/05 03:15:06;;;;;;;;;1.25;1.00;;;;;9.70;58.50;103210.22;6271724;22;45506;-75
2023/02/05 03:17:32;;;;;;;;;2.00;2.00;;;;;9.71;58.75;103219.78;6271864;22;45597;-75
2023/02/05 03:20:24;;;;;;;;;2.00;1.50;;;;;9.65;58.48;103218.19;6271731;22;47273;-74
2023/02/05 03:22:57;;;;;;;;;1.50;1.00;;;;;9.56;58.66;103209.69;6147514;23;45952;-72
2023/02/05 03:25:27;;;;;;;;;1.00;1.00;;;;;9.37;59.21;103174.44;6147025;23;46249;-74
2023/02/05 03:27:54;;;;;;;;;2.00;2.00;;;;;9.31;58.82;103159.75;6147509;23;46038;-75
2023/02/05 03:30:20;;;;;;;;;2.00;1.50;;;;;9.62;58.89;103223.50;6148806;23;47924;-74
2023/02/05 03:33:38;;;;;;;;;2.00;1.50;;;;;9.60;58.93;103227.91;6177376;23;47518;-75
2023/02/05 03:36:21;;;;;;;;;1.00;1.00;;;;;9.51;59.22;103222.88;6030726;23;45677;-74
2023/02/05 03:39:07;;;;;;;;;2.00;1.25;;;;;9.54;59.02;103235.91;6030385;23;45543;-74
2023/02/05 03:44:57;;;;;;;;;2.50;1.75;;;;;9.50;59.41;103212.47;6030187;23;45762;-75
2023/02/05 03:47:36;;;;;;;;;2.75;2.75;;;;;9.50;59.36;103217.72;6030256;23;45675;-75
2023/02/05 03:50:07;;;;;;;;;2.00;2.00;;;;;9.48;59.59;103212.50;6030425;23;45530;-74
2023/02/05 03:52:39;;;;;;;;;5.50;2.75;;;;;9.43;59.90;103213.53;6029644;23;46315;-74
2023/02/05 03:55:31;;;;;;;;;2.00;2.00;;;;;9.44;60.06;103223.09;6030239;23;47295;-76
2023/02/05 04:01:19;;;;;;;;;2.25;2.25;;;;;9.42;60.33;103202.19;6118067;23;45713;-74
2023/02/05 04:03:45;;;;;;;;;2.25;2.00;;;;;9.43;60.34;103197.81;6092540;23;48406;-73
2023/02/05 04:06:10;;;;;;;;;3.50;3.00;;;;;9.44;60.34;103199.56;6166562;22;45887;-74
2023/02/05 04:08:35;;;;;;;;;3.00;1.75;;;;;9.48;60.65;103209.91;6272223;22;45665;-74
2023/02/05 04:11:01;;;;;;;;;2.75;2.00;;;;;9.49;60.69;103202.91;6272173;22;45487;-74
2023/02/05 04:16:48;;;;;;;;;5.00;3.00;;;;;9.51;60.68;103211.56;6272321;22;46016;-74
2023/02/05 04:19:13;;;;;;;;;3.00;3.00;;;;;9.51;60.91;103219.41;6272537;22;45453;-75
2023/02/05 04:21:38;;;;;;;;;2.00;2.00;;;;;9.45;60.84;103211.72;6272130;22;45823;-74
2023/02/05 04:24:04;;;;;;;;;2.25;2.00;;;;;9.45;60.82;103215.19;6271651;22;47400;-75
2023/02/05 04:26:29;;;;;;;;;2.75;2.00;;;;;9.42;60.96;103228.38;6271732;22;46254;-74
2023/02/05 04:32:30;;;;;;;;;4.50;3.00;;;;;9.43;61.25;103229.22;6267456;22;45612;-74
2023/02/05 04:34:55;;;;;;;;;4.75;3.50;;;;;9.39;61.44;103233.69;6271452;22;47428;-74
2023/02/05 04:37:20;;;;;;;;;3.00;3.00;;;;;9.41;61.33;103236.25;6272344;22;45599;-74
2023/02/05 04:39:46;;;;;;;;;3.75;2.00;;;;;9.38;61.42;103228.47;6244017;22;45575;-75
2023/02/05 04:42:11;;;;;;;;;5.00;4.00;;;;;9.41;61.55;103242.34;6271461;22;45758;-75
2023/02/05 04:44:37;;;;;;;;;4.50;2.50;;;;;9.42;61.56;103241.44;6272078;22;46545;-74
2023/02/05 04:47:02;;;;;;;;;6.50;5.50;;;;;9.37;61.41;103238.06;6272233;22;45864;-74
2023/02/05 04:49:27;;;;;;;;;3.00;2.25;;;;;9.37;61.60;103232.84;6271443;22;45489;-74
2023/02/05 04:51:52;;;;;;;;;3.50;3.00;;;;;9.36;61.62;103246.81;6272165;22;45468;-74
2023/02/05 04:54:18;;;;;;;;;5.75;5.00;;;;;9.34;61.60;103243.38;6271411;22;46445;-75
2023/02/05 04:56:43;;;;;;;;;6.50;6.00;;;;;9.35;61.72;103246.84;6271133;22;46051;-75
2023/02/05 05:02:31;;;;;;;;;6.25;6.00;;;;;9.34;62.02;103226.84;6271981;22;45562;-75
2023/02/05 05:04:56;;;;;;;;;3.00;3.00;;;;;9.36;61.89;103220.66;6272175;22;45474;-74
2023/02/05 05:07:24;;;;;;;;;5.00;3.00;;;;;9.36;62.04;103228.50;6271377;22;46033;-73
2023/02/05 05:09:49;;;;;;;;;6.75;3.50;;;;;9.37;62.04;103242.44;6272712;22;45742;-75
2023/02/05 05:12:15;;;;;;;;;5.50;4.50;;;;;9.36;62.17;103253.81;6273878;22;45674;-75
2023/02/05 05:14:50;;;;;;;;;7.00;6.00;;;;;9.34;61.92;103242.53;6244411;22;46434;-75
2023/02/05 05:17:15;;;;;;;;;5.25;5.00;;;;;9.24;62.11;103213.94;6270904;22;46133;-73
2023/02/05 05:19:43;;;;;;;;;4.50;3.00;;;;;9.31;62.10;103237.34;6271256;22;45426;-75
2023/02/05 05:22:08;;;;;;;;;4.75;4.00;;;;;9.25;62.29;103239.22;6271910;22;45496;-74
2023/02/05 05:24:34;;;;;;;;;5.00;3.00;;;;;9.23;62.36;103232.31;6270687;22;46229;-75
2023/02/05 05:26:59;;;;;;;;;6.00;5.75;;;;;9.03;62.32;103240.59;6271863;22;45372;-73
2023/02/05 05:32:46;;;;;;;;;4.50;2.75;;;;;9.03;62.82;103261.53;6268574;22;45644;-75
2023/02/05 05:35:13;;;;;;;;;6.75;5.50;;;;;8.98;62.61;103257.28;6271312;22;45565;-75
2023/02/05 05:37:46;;;;;;;;;4.00;4.00;;;;;8.94;62.84;103255.63;6270989;22;46548;-74
2023/02/05 05:45:39;;;;;;;;;3.00;2.25;;;;;8.98;63.25;103275.59;6271413;22;45473;-73
2023/02/05 05:48:04;;;;;;;;;6.75;6.75;;;;;8.94;63.62;103272.19;6271046;22;45938;-74
2023/02/05 05:50:30;;;;;;;;;3.50;2.75;;;;;8.87;63.41;103280.19;6243004;22;45578;-74
2023/02/05 05:52:55;;;;;;;;;6.25;5.00;;;;;8.90;63.83;103291.47;6243962;22;45530;-73
2023/02/05 05:55:21;;;;;;;;;6.00;2.50;;;;;8.89;63.77;103292.34;6270840;22;47247;-74
2023/02/05 05:57:46;;;;;;;;;7.25;5.50;;;;;8.88;64.04;103282.78;6271138;22;46410;-75
2023/02/05 06:00:12;;;;;;;;;6.00;6.00;;;;;8.87;63.74;103273.19;6272224;22;45539;-75
2023/02/05 06:02:43;;;;;;;;;6.00;6.00;;;;;8.89;64.20;103278.41;6271539;22;45475;-73
2023/02/05 06:05:08;;;;;;;;;3.00;1.25;;;;;8.85;63.77;103273.22;6243168;22;47462;-74
2023/02/05 06:07:34;;;;;;;;;6.00;4.50;;;;;8.90;64.01;103281.00;6271408;22;45601;-75
2023/02/05 06:09:59;;;;;;;;;7.00;6.00;;;;;8.89;64.24;103273.19;6270589;22;45574;-75
2023/02/05 06:12:24;;;;;;;;;6.25;5.75;;;;;8.86;64.09;103279.31;6243441;22;45800;-74
2023/02/05 06:18:11;;;;;;;;;5.75;5.00;;;;;8.88;64.43;103274.94;6270923;22;45987;-75
2023/02/05 06:20:37;;;;;;;;;5.00;5.00;;;;;8.88;64.28;103272.31;6271097;22;45507;-75
2023/02/05 06:23:02;;;;;;;;;6.00;6.00;;;;;8.92;64.33;103275.72;6270654;22;45684;-74
2023/02/05 06:25:27;;;;;;;;;6.00;5.00;;;;;8.95;64.26;103270.44;6270949;22;45740;-74
2023/02/05 06:27:53;;;;;;;;;5.25;3.50;;;;;8.97;64.44;103271.25;6271059;22;45471;-74
2023/02/05 06:33:40;;;;;;;;;9.00;5.00;;;;;9.02;64.36;103275.47;6267530;22;45684;-74
2023/02/05 06:36:08;;;;;;;;;6.50;6.00;;;;;9.03;64.34;103273.72;6273003;22;50535;-74
2023/02/05 06:38:36;;;;;;;;;7.00;6.25;;;;;9.03;64.38;103256.28;6272645;22;46193;-74
2023/02/05 06:41:02;;;;;;;;;5.75;5.00;;;;;8.96;64.25;103232.94;6273006;22;45518;-74
2023/02/05 06:43:27;;;;;;;;;6.00;5.00;;;;;8.94;64.46;103227.75;6244500;22;45690;-74
2023/02/05 06:45:54;;;;;;;;;5.50;5.00;;;;;9.06;64.17;103247.53;6271638;22;47464;-74
2023/02/05 06:48:20;;;;;;;;;5.50;4.00;;;;;9.00;64.27;103231.97;6273249;22;45970;-75
2023/02/05 06:50:45;;;;;;;;;10.25;7.00;;;;;9.11;64.41;103250.91;6244987;22;45805;-76
2023/02/05 06:53:10;;;;;;;;;5.50;5.50;;;;;9.09;64.21;103243.09;6272914;22;45914;-74
2023/02/05 06:55:37;;;;;;;;;7.00;6.25;;;;;9.10;64.74;103241.34;6272390;22;46629;-75
2023/02/05 06:58:03;;;;;;;;;7.00;5.00;;;;;9.11;64.49;103243.91;6272405;22;46146;-77
2023/02/05 07:03:54;;;;;;;;;3.00;3.00;;;;;9.08;64.74;103269.25;6271872;22;45409;-73
2023/02/05 07:06:23;;;;;;;;;6.00;5.25;;;;;9.07;64.89;103280.63;6271455;22;46437;-75
2023/02/05 07:08:52;;;;;;;;;5.75;5.75;;;;;9.04;64.54;103273.72;6272928;22;46113;-75
2023/02/05 07:11:18;;;;;;;;;6.25;5.50;;;;;9.01;64.85;103273.78;6271812;22;45583;-74
2023/02/05 07:13:44;;;;;;;;;6.25;5.75;;;;;9.00;64.95;103269.44;6271967;22;45681;-75
2023/02/05 07:19:31;;;;;;;;;5.00;3.00;;;;;8.96;65.21;103269.56;6271877;22;45634;-73
2023/02/05 07:21:56;;;;;;;;;8.75;6.50;;;;;8.90;65.28;103257.47;6271938;22;45508;-75
2023/02/05 07:24:21;;;;;;;;;6.50;5.00;;;;;8.92;65.29;103279.19;6272605;22;45498;-73
2023/02/05 07:26:47;;;;;;;;;7.25;5.75;;;;;8.91;65.46;103267.00;6271987;22;46393;-74
2023/02/05 07:29:12;;;;;;;;;6.75;5.75;;;;;8.91;65.60;103272.22;6271491;22;46944;-74
2023/02/05 07:31:37;;;;;;;;;6.50;5.00;;;;;8.91;65.75;103276.63;6272601;22;45756;-74
2023/02/05 07:34:03;;;;;;;;;6.25;5.75;;;;;8.94;65.65;103281.78;6272610;22;45705;-74
2023/02/05 07:36:28;;;;;;;;;7.75;4.75;;;;;8.89;65.72;103276.66;6271736;22;48182;-75
2023/02/05 07:38:53;;;;;;;;;6.00;6.00;;;;;8.94;65.59;103280.03;6271320;22;45903;-73
2023/02/05 07:41:19;;;;;;;;;9.50;8.00;;;;;8.96;65.99;103282.63;6271922;22;45500;-74
2023/02/05 07:43:44;;;;;;;;;9.25;6.75;;;;;8.94;65.92;103287.88;6271540;22;45662;-72
2023/02/05 07:49:31;;;;;;;;;7.00;6.50;;;;;9.00;66.05;103289.50;6271820;22;45572;-73
2023/02/05 07:51:57;;;;;;;;;5.00;4.00;;;;;9.03;66.49;103287.66;6272044;22;45495;-76
2023/02/05 07:54:23;;;;;;;;;5.75;5.75;;;;;9.08;66.25;103298.03;6243679;22;45887;-75
2023/02/05 07:56:48;;;;;;;;;9.50;6.00;;;;;9.10;66.28;103297.13;6271521;22;47177;-72
2023/02/05 07:59:14;;;;;;;;;9.25;8.00;;;;;9.12;66.46;103297.91;6244175;22;45845;-71
2023/02/05 08:05:00;;;;;;;;;6.50;6.25;;;;;9.13;66.74;103304.88;6272034;22;45555;-71
2023/02/05 08:07:26;;;;;;;;;13.00;9.25;;;;;9.14;66.94;103305.75;6271264;22;47042;-69
2023/02/05 08:09:51;;;;;;;;;10.75;9.75;;;;;9.12;67.00;103326.69;6244478;22;45989;-72
2023/02/05 08:12:16;;;;;;;;;9.00;8.50;;;;;9.15;67.20;103324.03;6243685;22;45581;-72
2023/02/05 08:14:42;;;;;;;;;10.25;10.00;;;;;9.13;67.31;103322.31;6271168;22;45660;-72
2023/02/05 08:17:07;;;;;;;;;10.25;8.25;;;;;9.15;67.28;103324.03;6271470;22;46162;-73
2023/02/05 08:19:32;;;;;;;;;10.25;10.25;;;;;9.21;67.53;103312.56;6271206;22;48646;-70
2023/02/05 08:21:58;;;;;;;;;11.25;10.75;;;;;9.25;67.49;103338.63;6244201;22;45777;-71
2023/02/05 08:24:23;;;;;;;;;10.75;10.50;;;;;9.25;67.41;103322.94;6271326;22;45936;-71
2023/02/05 08:26:48;;;;;;;;;15.00;10.75;;;;;9.29;67.72;103326.31;6271998;22;45886;-72
2023/02/05 08:29:14;;;;;;;;;16.00;13.75;;;;;9.29;67.74;103326.31;6273742;22;46101;-72
2023/02/05 08:35:01;;;;;;;;;13.50;11.50;;;;;9.28;68.13;103337.72;6266114;22;45792;-70
2023/02/05 08:37:27;;;;;;;;;18.25;12.75;;;;;9.27;68.18;103335.97;6271841;22;45535;-73
2023/02/05 08:39:53;;;;;;;;;14.75;14.00;;;;;9.31;68.51;103336.75;6271191;22;47063;-72
2023/02/05 08:42:19;;;;;;;;;14.75;12.00;;;;;9.31;68.71;103335.00;6271794;22;45596;-71
2023/02/05 08:44:44;;;;;;;;;12.00;10.25;;;;;9.35;68.59;103328.81;6272036;22;45574;-70
2023/02/05 08:50:31;;;;;;;;;15.00;11.00;;;;;9.37;68.92;103337.50;6271330;22;46043;-72
2023/02/05 08:52:56;;;;;;;;;15.25;12.75;;;;;9.36;69.25;103348.00;6270326;22;45617;-71
2023/02/05 08:55:22;;;;;;;;;15.00;12.75;;;;;9.34;69.28;103350.63;6271610;22;45458;-72
2023/02/05 08:57:47;;;;;;;;;14.25;13.50;;;;;9.39;69.55;103351.41;6270960;22;46497;-71
2023/02/05 09:00:14;;;;;;;;;18.75;16.00;;;;;9.42;69.23;103353.09;6271864;22;45598;-71
2023/02/05 09:06:05;;;;;;;;;20.50;19.25;;;;;9.45;69.14;103338.16;6271467;22;45689;-72
2023/02/05 09:08:31;;;;;;;;;15.75;13.00;;;;;9.48;69.49;103345.97;6271468;22;46646;-72
2023/02/05 09:10:56;;;;;;;;;16.25;15.00;;;;;9.48;69.84;103345.97;6270586;22;47443;-71
2023/02/05 09:13:22;;;;;;;;;11.75;11.00;;;;;9.48;69.93;103353.81;6271182;22;45767;-70
2023/02/05 09:15:47;;;;;;;;;18.75;14.25;;;;;9.50;69.98;103346.78;6271209;22;45567;-72
2023/02/05 09:18:13;;;;;;;;;17.25;16.00;;;;;9.47;70.43;103354.72;6271614;22;47288;-72
2023/02/05 09:20:43;;;;;;;;;16.25;12.75;;;;;9.44;70.53;103340.84;6245920;22;45504;-70
2023/02/05 09:23:11;;;;;;;;;19.75;17.25;;;;;9.39;70.72;103346.19;6273501;22;45609;-72
2023/02/05 09:25:40;;;;;;;;;20.25;17.75;;;;;9.45;71.12;103356.47;6243864;22;45454;-72
2023/02/05 09:28:08;;;;;;;;;15.25;15.25;;;;;9.44;70.93;103357.41;6271351;22;46322;-70
2023/02/05 09:30:37;;;;;;;;;18.75;16.75;;;;;9.44;71.14;103359.16;6243948;22;46594;-72
2023/02/05 09:36:24;;;;;;;;;14.75;12.75;;;;;9.49;71.09;103352.06;6266290;22;45651;-73
2023/02/05 09:38:52;;;;;;;;;15.75;13.75;;;;;9.51;71.21;103347.63;6270422;22;46748;-72
2023/02/05 09:41:43;;;;;;;;;16.25;13.50;;;;;9.55;70.94;103354.56;6244235;22;46315;-70
2023/02/05 09:44:33;;;;;;;;;15.00;15.00;;;;;9.49;71.18;103359.91;6270912;22;45630;-72
2023/02/05 09:47:16;;;;;;;;;14.00;12.50;;;;;9.57;70.97;103360.59;6271218;22;45516;-72
2023/02/05 09:49:54;;;;;;;;;12.00;11.00;;;;;9.59;70.84;103364.91;6270899;22;46273;-72
2023/02/05 09:52:26;;;;;;;;;11.25;8.25;;;;;9.65;70.56;103374.38;6271555;22;45527;-72
2023/02/05 09:55:06;;;;;;;;;8.50;8.25;;;;;9.68;69.89;103371.69;6270721;22;45835;-73
2023/02/05 09:57:35;;;;;;;;;8.75;7.25;;;;;9.69;69.99;103369.03;6243809;22;45834;-73
2023/02/05 10:00:04;;;;;;;;;11.50;10.50;;;;;9.67;69.93;103359.47;6270909;22;46647;-72
2023/02/05 10:02:48;;;;;;;;;10.50;9.75;;;;;9.69;69.82;103365.56;6271387;22;47096;-71
2023/02/05 10:05:15;;;;;;;;;8.00;8.00;;;;;9.71;69.87;103369.00;6271684;22;45377;-73
2023/02/05 10:07:54;;;;;;;;;8.25;6.50;;;;;9.76;69.62;103355.81;6272694;22;45663;-71
2023/02/05 10:10:26;;;;;;;;;7.25;7.25;;;;;9.80;69.47;103378.38;6244724;22;46369;-73
2023/02/05 10:13:24;;;;;;;;;10.25;6.75;;;;;9.82;68.93;103369.63;6272064;22;46323;-72
2023/02/05 10:16:05;;;;;;;;;0.75;0.75;;;;;9.87;68.74;103378.22;6272683;22;45513;-73
2023/02/05 10:19:05;;;;;;;;;6.50;5.25;;;;;9.91;67.81;103363.28;6273282;22;45690;-72
2023/02/05 10:21:42;;;;;;;;;3.00;3.00;;;;;9.92;67.29;103378.09;6148390;23;45787;-72
2023/02/05 10:24:47;;;;;;;;;5.25;3.00;;;;;9.88;66.98;103379.91;6148197;23;46401;-73
2023/02/05 10:27:29;;;;;;;;;2.25;2.00;;;;;9.94;66.27;103384.16;6148772;23;45524;-73
2023/02/05 10:30:19;;;;;;;;;3.00;3.00;;;;;9.90;66.08;103391.22;6148143;23;45778;-72
2023/02/05 10:36:09;;;;;;;;;2.75;2.00;;;;;9.89;65.87;103391.25;6160583;23;46143;-72
2023/02/05 10:38:43;;;;;;;;;1.00;1.00;;;;;9.87;65.51;103414.88;6178042;23;45604;-72
2023/02/05 10:41:27;;;;;;;;;2.00;1.00;;;;;9.88;64.82;103419.19;6177883;23;45441;-72
2023/02/05 10:44:10;;;;;;;;;1.75;1.75;;;;;9.87;64.56;103443.69;6177855;23;45453;-71
2023/02/05 10:46:37;;;;;;;;;1.00;1.00;;;;;9.81;64.34;103430.72;6177748;23;47322;-71
2023/02/05 10:52:24;;;;;;;;;0.75;0.25;;;;;9.87;63.94;103430.59;6178556;23;45637;-72
2023/02/05 10:54:50;;;;;;;;;2.00;1.00;;;;;9.78;63.52;103408.97;6179676;23;46198;-71
2023/02/05 10:57:18;;;;;;;;;0.25;0.00;;;;;9.86;63.31;103412.28;6182651;22;47041;-71
2023/02/05 10:59:52;;;;;;;;;2.00;0.50;;;;;9.83;62.09;103383.53;6273257;22;45592;-72
2023/02/05 11:02:19;;;;;;;;;1.25;0.25;;;;;9.88;62.52;103400.88;6272707;22;45606;-71
2023/02/05 11:04:51;;;;;;;;;4.75;1.25;;;;;9.89;62.21;103407.84;6271391;22;45930;-72
2023/02/05 11:07:34;;;;;;;;;2.75;0.75;;;;;9.89;61.15;103399.97;6271691;22;47145;-73
2023/02/05 11:10:18;;;;;;;;;2.00;1.00;;;;;9.91;61.01;103406.06;6271365;22;45579;-71
2023/02/05 11:12:47;;;;;;;;;0.00;0.00;;;;;9.82;60.27;103402.78;6271922;22;45512;-71
2023/02/05 11:15:21;;;;;;;;;0.50;0.50;;;;;9.89;59.96;103391.25;6272342;22;46888;-72
2023/02/05 11:17:53;;;;;;;;;0.25;0.25;;;;;9.88;60.00;103400.88;6269622;22;46936;-72
2023/02/05 11:20:18;;;;;;;;;0.00;0.00;;;;;9.90;59.63;103380.75;6272368;22;45468;-72
2023/02/05 11:22:47;;;;;;;;;1.75;1.00;;;;;9.91;59.58;103385.09;6270234;22;45536;-72
2023/02/05 11:25:19;;;;;;;;;4.25;1.00;;;;;9.90;59.41;103401.72;6271418;22;46511;-72
2023/02/05 11:27:54;;;;;;;;;1.00;1.00;;;;;9.86;59.71;103407.91;6272389;22;46136;-72
2023/02/05 11:30:32;;;;;;;;;0.00;0.00;;;;;9.86;59.04;103389.59;6269951;22;45620;-72
2023/02/05 11:33:14;;;;;;;;;1.00;1.00;;;;;9.94;58.92;103390.25;6272218;22;45515;-72
2023/02/05 11:35:47;;;;;;;;;2.25;1.00;;;;;9.91;58.61;103392.09;6271075;22;46610;-71
2023/02/05 11:38:31;;;;;;;;;1.50;0.75;;;;;9.89;58.24;103376.41;6272195;22;46237;-71
2023/02/05 11:40:59;;;;;;;;;2.00;0.75;;;;;9.92;58.60;103372.88;6245730;22;45699;-72
2023/02/05 11:43:37;;;;;;;;;2.00;0.75;;;;;9.98;57.89;103363.13;6271925;22;45531;-72
2023/02/05 11:46:07;;;;;;;;;1.00;0.00;;;;;9.97;57.41;103377.09;6272972;22;45716;-72
2023/02/05 11:48:51;;;;;;;;;0.50;0.00;;;;;9.98;57.63;103384.06;6245512;22;45864;-72
2023/02/05 11:51:47;;;;;;;;;1.25;0.75;;;;;10.01;56.87;103381.38;6271615;22;45654;-71
2023/02/05 11:54:18;;;;;;;;;2.00;0.00;;;;;10.04;56.45;103388.31;6271362;22;45678;-71
2023/02/05 11:57:04;;;;;;;;;2.00;1.00;;;;;10.05;56.72;103387.38;6272071;22;45472;-72
2023/02/05 11:59:30;;;;;;;;;0.50;0.00;;;;;10.09;56.62;103370.72;6271441;22;46356;-71
2023/02/05 12:02:27;;;;;;;;;0.00;0.00;;;;;10.16;56.05;103358.28;6271439;22;45613;-72
2023/02/05 12:04:59;;;;;;;;;0.25;0.00;;;;;10.22;55.20;103385.25;6272110;22;45645;-71
2023/02/05 12:07:28;;;;;;;;;1.00;0.25;;;;;10.24;54.84;103369.50;6271352;22;45582;-72
2023/02/05 12:09:58;;;;;;;;;1.50;0.50;;;;;10.25;54.79;103365.97;6271106;22;45881;-73
2023/02/05 12:12:38;;;;;;;;;1.00;0.50;;;;;10.32;54.47;103367.53;6271339;22;45560;-73
2023/02/05 12:15:12;;;;;;;;;0.00;0.00;;;;;10.34;54.35;103363.13;6272206;22;45452;-71
2023/02/05 12:21:29;;;;;;;;;2.00;0.00;;;;;10.36;53.47;103361.31;6271666;22;45837;-72
2023/02/05 12:24:07;;;;;;;;;2.25;0.25;;;;;10.38;53.97;103355.13;6270270;22;45721;-72
2023/02/05 12:26:37;;;;;;;;;0.75;0.00;;;;;10.42;53.87;103362.00;6272503;22;45600;-72
2023/02/05 12:29:36;;;;;;;;;1.00;1.00;;;;;10.46;53.97;103366.28;6271998;22;45783;-71
2023/02/05 12:32:26;;;;;;;;;0.00;0.00;;;;;10.51;54.06;103368.78;6272267;22;46446;-72
2023/02/05 12:38:48;;;;;;;;;2.00;1.00;;;;;10.49;53.10;103379.28;6269302;22;45770;-71
2023/02/05 12:41:29;;;;;;;;;0.50;0.50;;;;;10.48;52.53;103382.81;6271587;22;47279;-72
2023/02/05 12:44:10;;;;;;;;;1.00;0.00;;;;;10.44;53.08;103364.59;6271338;22;46340;-71
2023/02/05 12:46:47;;;;;;;;;1.00;0.75;;;;;10.39;53.26;103363.84;6271630;22;45690;-72
2023/02/05 12:53:01;;;;;;;;;1.25;1.00;;;;;10.35;53.12;103349.13;6271373;22;45897;-73
2023/02/05 12:55:43;;;;;;;;;1.00;1.00;;;;;10.36;52.97;103329.88;6272006;22;45771;-71
2023/02/05 12:58:12;;;;;;;;;1.00;0.00;;;;;10.39;52.96;103333.28;6272111;22;45500;-72
2023/02/05 13:00:49;;;;;;;;;1.50;1.00;;;;;10.45;52.63;103327.88;6272170;22;45433;-71
2023/02/05 13:10:05;;;;;;;;;2.50;0.00;;;;;10.58;52.00;103341.47;6271835;22;45697;-72
2023/02/05 13:12:43;;;;;;;;;1.50;0.75;;;;;10.64;51.43;103353.56;6272160;22;45524;-71
2023/02/05 13:15:11;;;;;;;;;0.50;0.00;;;;;10.65;51.54;103329.94;6271137;22;46424;-71
2023/02/05 13:17:45;;;;;;;;;0.00;0.00;;;;;10.67;51.51;103332.53;6271269;22;46243;-71
2023/02/05 13:28:38;;;;;;;;;1.50;1.00;;;;;10.68;51.49;103327.25;6271396;22;45705;-72